sensor_id;sensor_type;location;lat;lon;timestamp;pressure;altitude;pressure_sealevel;temperature;humidity
21730;BME280;11027;51.030;13.812;2023-09-12T00:00:11;99846.50;;;22.54;69.95
21730;BME280;11027;51.030;13.812;2023-09-12T00:02:37;99848.13;;;22.50;70.49
21730;BME280;11027;51.030;13.812;2023-09-12T00:05:02;99845.34;;;22.50;70.27
21730;BME280;11027;51.030;13.812;2023-09-12T00:07:28;99848.13;;;22.50;70.37
21730;BME280;11027;51.030;13.812;2023-09-12T00:09:53;99843.09;;;22.47;70.65
21730;BME280;11027;51.030;13.812;2023-09-12T00:12:22;99840.88;;;22.44;70.62
21730;BME280;11027;51.030;13.812;2023-09-12T00:14:48;99848.63;;;22.42;70.61
21730;BME280;11027;51.030;13.812;2023-09-12T00:17:14;99844.72;;;22.38;70.70
21730;BME280;11027;51.030;13.812;2023-09-12T00:19:39;99847.72;;;22.31;70.88
21730;BME280;11027;51.030;13.812;2023-09-12T00:22:04;99850.75;;;22.30;70.92
21730;BME280;11027;51.030;13.812;2023-09-12T00:24:29;99847.38;;;22.28;71.08
21730;BME280;11027;51.030;13.812;2023-09-12T00:26:55;99856.00;;;22.26;71.20
21730;BME280;11027;51.030;13.812;2023-09-12T00:29:20;99850.13;;;22.23;71.16
21730;BME280;11027;51.030;13.812;2023-09-12T00:31:45;99847.34;;;22.23;71.06
21730;BME280;11027;51.030;13.812;2023-09-12T00:34:16;99851.81;;;22.24;71.19
21730;BME280;11027;51.030;13.812;2023-09-12T00:36:41;99846.25;;;22.24;71.39
21730;BME280;11027;51.030;13.812;2023-09-12T00:39:06;99843.44;;;22.18;71.33
21730;BME280;11027;51.030;13.812;2023-09-12T00:41:32;99842.28;;;22.14;71.60
21730;BME280;11027;51.030;13.812;2023-09-12T00:43:57;99846.13;;;22.13;71.46
21730;BME280;11027;51.030;13.812;2023-09-12T00:46:23;99842.78;;;22.11;71.53
21730;BME280;11027;51.030;13.812;2023-09-12T00:48:49;99845.56;;;22.11;71.47
21730;BME280;11027;51.030;13.812;2023-09-12T00:51:15;99850.53;;;22.09;71.54
21730;BME280;11027;51.030;13.812;2023-09-12T00:53:41;99845.53;;;22.06;71.76
21730;BME280;11027;51.030;13.812;2023-09-12T00:56:06;99844.41;;;22.02;71.73
21730;BME280;11027;51.030;13.812;2023-09-12T00:58:32;99851.84;;;21.96;71.72
21730;BME280;11027;51.030;13.812;2023-09-12T01:00:58;99849.56;;;21.93;71.83
21730;BME280;11027;51.030;13.812;2023-09-12T01:03:23;99849.53;;;21.88;72.13
21730;BME280;11027;51.030;13.812;2023-09-12T01:05:49;99854.78;;;21.85;72.16
21730;BME280;11027;51.030;13.812;2023-09-12T01:08:14;99861.38;;;21.78;72.15
21730;BME280;11027;51.030;13.812;2023-09-12T01:10:39;99847.47;;;21.73;72.26
21730;BME280;11027;51.030;13.812;2023-09-12T01:13:05;99851.88;;;21.69;72.50
21730;BME280;11027;51.030;13.812;2023-09-12T01:15:30;99847.97;;;21.70;72.50
21730;BME280;11027;51.030;13.812;2023-09-12T01:17:56;99857.41;;;21.69;72.53
21730;BME280;11027;51.030;13.812;2023-09-12T01:20:31;99857.91;;;21.66;72.81
21730;BME280;11027;51.030;13.812;2023-09-12T01:26:21;99851.75;;;21.59;72.30
21730;BME280;11027;51.030;13.812;2023-09-12T01:28:54;99860.59;;;21.56;72.35
21730;BME280;11027;51.030;13.812;2023-09-12T01:31:22;99851.13;;;21.52;72.56
21730;BME280;11027;51.030;13.812;2023-09-12T01:33:48;99857.16;;;21.49;72.33
21730;BME280;11027;51.030;13.812;2023-09-12T01:36:13;99863.75;;;21.43;72.51
21730;BME280;11027;51.030;13.812;2023-09-12T01:38:38;99853.19;;;21.40;72.83
21730;BME280;11027;51.030;13.812;2023-09-12T01:41:04;99856.72;;;21.35;72.77
21730;BME280;11027;51.030;13.812;2023-09-12T01:43:31;99851.38;;;21.28;73.17
21730;BME280;11027;51.030;13.812;2023-09-12T01:45:58;99856.59;;;21.25;73.30
21730;BME280;11027;51.030;13.812;2023-09-12T01:48:26;99861.31;;;21.24;73.34
21730;BME280;11027;51.030;13.812;2023-09-12T01:50:55;99855.75;;;21.24;73.47
21730;BME280;11027;51.030;13.812;2023-09-12T01:53:21;99860.22;;;21.25;73.24
21730;BME280;11027;51.030;13.812;2023-09-12T01:55:47;99857.94;;;21.22;73.30
21730;BME280;11027;51.030;13.812;2023-09-12T01:58:13;99864.03;;;21.19;73.31
21730;BME280;11027;51.030;13.812;2023-09-12T02:00:39;99855.13;;;21.17;73.50
21730;BME280;11027;51.030;13.812;2023-09-12T02:03:05;99855.13;;;21.17;73.31
21730;BME280;11027;51.030;13.812;2023-09-12T02:05:31;99850.94;;;21.14;73.68
21730;BME280;11027;51.030;13.812;2023-09-12T02:07:56;99857.25;;;21.10;73.68
21730;BME280;11027;51.030;13.812;2023-09-12T02:10:21;99866.09;;;21.07;73.80
21730;BME280;11027;51.030;13.812;2023-09-12T02:12:47;99859.38;;;21.03;74.00
21730;BME280;11027;51.030;13.812;2023-09-12T02:15:12;99860.97;;;20.98;74.18
21730;BME280;11027;51.030;13.812;2023-09-12T02:17:38;99865.94;;;20.96;74.11
21730;BME280;11027;51.030;13.812;2023-09-12T02:20:05;99867.88;;;20.96;73.97
21730;BME280;11027;51.030;13.812;2023-09-12T02:22:31;99861.41;;;20.90;73.95
21730;BME280;11027;51.030;13.812;2023-09-12T02:24:56;99860.25;;;20.86;74.36
21730;BME280;11027;51.030;13.812;2023-09-12T02:27:22;99864.38;;;20.84;74.21
21730;BME280;11027;51.030;13.812;2023-09-12T02:29:47;99864.13;;;20.85;74.24
21730;BME280;11027;51.030;13.812;2023-09-12T02:32:12;99862.78;;;20.88;74.23
21730;BME280;11027;51.030;13.812;2023-09-12T02:34:37;99864.72;;;20.87;74.45
21730;BME280;11027;51.030;13.812;2023-09-12T02:37:03;99863.59;;;20.88;74.49
21730;BME280;11027;51.030;13.812;2023-09-12T02:39:28;99861.94;;;20.87;74.27
21730;BME280;11027;51.030;13.812;2023-09-12T02:41:53;99862.19;;;20.86;74.39
21730;BME280;11027;51.030;13.812;2023-09-12T02:44:18;99867.16;;;20.84;74.63
21730;BME280;11027;51.030;13.812;2023-09-12T02:46:44;99875.69;;;20.82;74.37
21730;BME280;11027;51.030;13.812;2023-09-12T02:49:09;99879.56;;;20.81;74.36
21730;BME280;11027;51.030;13.812;2023-09-12T02:51:38;99871.53;;;20.80;74.61
21730;BME280;11027;51.030;13.812;2023-09-12T02:54:03;99869.00;;;20.78;74.54
21730;BME280;11027;51.030;13.812;2023-09-12T02:56:28;99877.84;;;20.75;74.35
21730;BME280;11027;51.030;13.812;2023-09-12T02:58:54;99866.75;;;20.75;74.40
21730;BME280;11027;51.030;13.812;2023-09-12T03:01:20;99873.38;;;20.74;74.52
21730;BME280;11027;51.030;13.812;2023-09-12T03:03:49;99877.25;;;20.73;74.52
21730;BME280;11027;51.030;13.812;2023-09-12T03:06:16;99875.56;;;20.72;74.46
21730;BME280;11027;51.030;13.812;2023-09-12T03:08:42;99871.38;;;20.69;74.61
21730;BME280;11027;51.030;13.812;2023-09-12T03:11:08;99881.63;;;20.69;74.55
21730;BME280;11027;51.030;13.812;2023-09-12T03:13:34;99869.38;;;20.65;74.61
21730;BME280;11027;51.030;13.812;2023-09-12T03:16:00;99866.63;;;20.65;74.55
21730;BME280;11027;51.030;13.812;2023-09-12T03:18:26;99860.75;;;20.61;74.78
21730;BME280;11027;51.030;13.812;2023-09-12T03:20:51;99864.88;;;20.58;74.35
21730;BME280;11027;51.030;13.812;2023-09-12T03:23:16;99863.38;;;20.56;74.64
21730;BME280;11027;51.030;13.812;2023-09-12T03:25:42;99856.44;;;20.53;74.59
21730;BME280;11027;51.030;13.812;2023-09-12T03:28:07;99858.13;;;20.54;74.55
21730;BME280;11027;51.030;13.812;2023-09-12T03:30:34;99853.69;;;20.53;74.21
21730;BME280;11027;51.030;13.812;2023-09-12T03:33:00;99861.34;;;20.46;74.51
21730;BME280;11027;51.030;13.812;2023-09-12T03:35:25;99857.41;;;20.42;74.52
21730;BME280;11027;51.030;13.812;2023-09-12T03:37:50;99859.00;;;20.38;74.53
21730;BME280;11027;51.030;13.812;2023-09-12T03:40:16;99859.00;;;20.38;74.56
21730;BME280;11027;51.030;13.812;2023-09-12T03:42:41;99858.41;;;20.36;74.90
21730;BME280;11027;51.030;13.812;2023-09-12T03:45:07;99859.72;;;20.33;74.77
21730;BME280;11027;51.030;13.812;2023-09-12T03:47:32;99856.63;;;20.30;74.40
21730;BME280;11027;51.030;13.812;2023-09-12T03:49:57;99858.81;;;20.28;74.69
21730;BME280;11027;51.030;13.812;2023-09-12T03:52:23;99860.69;;;20.22;74.35
21730;BME280;11027;51.030;13.812;2023-09-12T03:54:48;99856.97;;;20.16;74.63
21730;BME280;11027;51.030;13.812;2023-09-12T03:57:13;99853.53;;;20.09;74.92
21730;BME280;11027;51.030;13.812;2023-09-12T03:59:38;99852.94;;;20.07;74.81
21730;BME280;11027;51.030;13.812;2023-09-12T04:02:04;99854.28;;;20.05;74.73
21730;BME280;11027;51.030;13.812;2023-09-12T04:04:29;99863.69;;;20.04;74.87
21730;BME280;11027;51.030;13.812;2023-09-12T04:06:54;99862.50;;;19.99;75.13
21730;BME280;11027;51.030;13.812;2023-09-12T04:09:20;99861.31;;;19.95;75.16
21730;BME280;11027;51.030;13.812;2023-09-12T04:11:45;99862.66;;;19.93;75.09
21730;BME280;11027;51.030;13.812;2023-09-12T04:14:11;99871.13;;;19.86;75.32
21730;BME280;11027;51.030;13.812;2023-09-12T04:16:36;99865.84;;;19.85;75.39
21730;BME280;11027;51.030;13.812;2023-09-12T04:19:01;99865.25;;;19.83;75.24
21730;BME280;11027;51.030;13.812;2023-09-12T04:21:28;99864.66;;;19.81;75.54
21730;BME280;11027;51.030;13.812;2023-09-12T04:23:53;99871.88;;;19.82;75.54
21730;BME280;11027;51.030;13.812;2023-09-12T04:26:18;99860.47;;;19.78;75.59
21730;BME280;11027;51.030;13.812;2023-09-12T04:28:46;99871.78;;;19.76;75.37
21730;BME280;11027;51.030;13.812;2023-09-12T04:31:11;99872.88;;;19.75;75.49
21730;BME280;11027;51.030;13.812;2023-09-12T04:33:37;99869.53;;;19.73;75.49
21730;BME280;11027;51.030;13.812;2023-09-12T04:36:02;99867.84;;;19.72;75.79
21730;BME280;11027;51.030;13.812;2023-09-12T04:38:27;99869.97;;;19.70;75.55
21730;BME280;11027;51.030;13.812;2023-09-12T04:40:54;99877.66;;;19.68;75.86
21730;BME280;11027;51.030;13.812;2023-09-12T04:43:19;99867.97;;;19.66;76.15
21730;BME280;11027;51.030;13.812;2023-09-12T04:45:45;99863.25;;;19.66;76.31
21730;BME280;11027;51.030;13.812;2023-09-12T04:48:10;99860.75;;;19.65;76.50
21730;BME280;11027;51.030;13.812;2023-09-12T04:50:40;99860.38;;;19.61;76.64
21730;BME280;11027;51.030;13.812;2023-09-12T04:53:06;99858.72;;;19.60;76.53
21730;BME280;11027;51.030;13.812;2023-09-12T04:55:31;99853.69;;;19.57;76.72
21730;BME280;11027;51.030;13.812;2023-09-12T04:57:56;99859.72;;;19.54;76.99
21730;BME280;11027;51.030;13.812;2023-09-12T05:00:22;99855.78;;;19.50;77.43
21730;BME280;11027;51.030;13.812;2023-09-12T05:02:47;99856.84;;;19.49;77.57
21730;BME280;11027;51.030;13.812;2023-09-12T05:05:12;99856.84;;;19.49;77.52
21730;BME280;11027;51.030;13.812;2023-09-12T05:07:37;99871.25;;;19.51;77.10
21730;BME280;11027;51.030;13.812;2023-09-12T05:10:03;99858.53;;;19.50;77.09
21730;BME280;11027;51.030;13.812;2023-09-12T05:12:29;99866.25;;;19.48;77.08
21730;BME280;11027;51.030;13.812;2023-09-12T05:14:54;99861.31;;;19.50;77.12
21730;BME280;11027;51.030;13.812;2023-09-12T05:17:19;99861.91;;;19.52;77.01
21730;BME280;11027;51.030;13.812;2023-09-12T05:19:44;99866.31;;;19.53;76.93
21730;BME280;11027;51.030;13.812;2023-09-12T05:22:10;99870.41;;;19.50;77.21
21730;BME280;11027;51.030;13.812;2023-09-12T05:24:35;99856.84;;;19.49;77.11
21730;BME280;11027;51.030;13.812;2023-09-12T05:27:00;99864.53;;;19.47;77.44
21730;BME280;11027;51.030;13.812;2023-09-12T05:29:26;99864.47;;;19.42;77.85
21730;BME280;11027;51.030;13.812;2023-09-12T05:31:51;99866.13;;;19.43;78.04
21730;BME280;11027;51.030;13.812;2023-09-12T05:34:16;99875.00;;;19.45;77.67
21730;BME280;11027;51.030;13.812;2023-09-12T05:36:42;99872.25;;;19.45;77.83
21730;BME280;11027;51.030;13.812;2023-09-12T05:39:07;99873.09;;;19.45;77.79
21730;BME280;11027;51.030;13.812;2023-09-12T05:41:33;99869.47;;;19.45;77.63
21730;BME280;11027;51.030;13.812;2023-09-12T05:43:58;99872.25;;;19.45;77.90
21730;BME280;11027;51.030;13.812;2023-09-12T05:46:23;99870.06;;;19.47;77.77
21730;BME280;11027;51.030;13.812;2023-09-12T05:48:48;99875.59;;;19.47;77.67
21730;BME280;11027;51.030;13.812;2023-09-12T05:51:14;99883.28;;;19.45;77.77
21730;BME280;11027;51.030;13.812;2023-09-12T05:53:39;99884.97;;;19.46;78.46
21730;BME280;11027;51.030;13.812;2023-09-12T05:56:04;99884.16;;;19.45;78.51
21730;BME280;11027;51.030;13.812;2023-09-12T05:58:29;99884.38;;;19.44;78.64
21730;BME280;11027;51.030;13.812;2023-09-12T06:00:55;99889.69;;;19.45;78.79
21730;BME280;11027;51.030;13.812;2023-09-12T06:03:20;99882.47;;;19.44;78.59
21730;BME280;11027;51.030;13.812;2023-09-12T06:05:46;99893.88;;;19.48;78.72
21730;BME280;11027;51.030;13.812;2023-09-12T06:08:11;99898.03;;;19.50;78.87
21730;BME280;11027;51.030;13.812;2023-09-12T06:10:36;99896.72;;;19.53;78.99
21730;BME280;11027;51.030;13.812;2023-09-12T06:13:02;99900.06;;;19.55;78.77
21730;BME280;11027;51.030;13.812;2023-09-12T06:15:27;99897.88;;;19.57;78.89
21730;BME280;11027;51.030;13.812;2023-09-12T06:17:53;99894.06;;;19.58;78.88
21730;BME280;11027;51.030;13.812;2023-09-12T06:20:19;99901.84;;;19.61;78.90
21730;BME280;11027;51.030;13.812;2023-09-12T06:22:44;99912.16;;;19.66;78.78
21730;BME280;11027;51.030;13.812;2023-09-12T06:25:09;99907.00;;;19.69;78.72
21730;BME280;11027;51.030;13.812;2023-09-12T06:27:35;99904.22;;;19.69;79.08
21730;BME280;11027;51.030;13.812;2023-09-12T06:30:00;99904.00;;;19.71;78.88
21730;BME280;11027;51.030;13.812;2023-09-12T06:32:25;99902.19;;;19.76;78.74
21730;BME280;11027;51.030;13.812;2023-09-12T06:34:51;99908.06;;;19.80;78.95
21730;BME280;11027;51.030;13.812;2023-09-12T06:37:16;99897.34;;;19.84;78.86
21730;BME280;11027;51.030;13.812;2023-09-12T06:39:41;99904.28;;;19.86;79.03
21730;BME280;11027;51.030;13.812;2023-09-12T06:42:07;99907.41;;;19.90;78.86
21730;BME280;11027;51.030;13.812;2023-09-12T06:44:32;99912.41;;;19.93;78.72
21730;BME280;11027;51.030;13.812;2023-09-12T06:46:58;99908.31;;;19.95;78.88
21730;BME280;11027;51.030;13.812;2023-09-12T06:49:23;99919.13;;;19.97;78.76
21730;BME280;11027;51.030;13.812;2023-09-12T06:51:48;99916.47;;;20.02;78.63
21730;BME280;11027;51.030;13.812;2023-09-12T06:54:13;99903.22;;;20.04;78.68
21730;BME280;11027;51.030;13.812;2023-09-12T06:56:40;99914.88;;;20.06;78.85
21730;BME280;11027;51.030;13.812;2023-09-12T06:59:07;99912.72;;;20.08;78.81
21730;BME280;11027;51.030;13.812;2023-09-12T07:01:33;99901.41;;;20.10;78.83
21730;BME280;11027;51.030;13.812;2023-09-12T07:03:58;99903.06;;;20.11;78.86
21730;BME280;11027;51.030;13.812;2023-09-12T07:06:23;99905.34;;;20.14;78.67
21730;BME280;11027;51.030;13.812;2023-09-12T07:08:49;99901.81;;;20.18;78.59
21730;BME280;11027;51.030;13.812;2023-09-12T07:11:15;99909.59;;;20.22;77.96
21730;BME280;11027;51.030;13.812;2023-09-12T07:13:40;99905.25;;;20.26;78.50
21730;BME280;11027;51.030;13.812;2023-09-12T07:16:05;99907.28;;;20.30;78.79
21730;BME280;11027;51.030;13.812;2023-09-12T07:18:31;99909.78;;;20.32;78.53
21730;BME280;11027;51.030;13.812;2023-09-12T07:21:01;99904.56;;;20.35;78.55
21730;BME280;11027;51.030;13.812;2023-09-12T07:23:28;99907.44;;;20.41;78.67
21730;BME280;11027;51.030;13.812;2023-09-12T07:25:54;99914.97;;;20.45;78.22
21730;BME280;11027;51.030;13.812;2023-09-12T07:28:20;99910.38;;;20.51;78.29
21730;BME280;11027;51.030;13.812;2023-09-12T07:30:46;99911.28;;;20.56;78.02
21730;BME280;11027;51.030;13.812;2023-09-12T07:33:11;99907.78;;;20.61;77.98
21730;BME280;11027;51.030;13.812;2023-09-12T07:35:37;99909.78;;;20.66;77.91
21730;BME280;11027;51.030;13.812;2023-09-12T07:38:02;99916.50;;;20.70;77.75
21730;BME280;11027;51.030;13.812;2023-09-12T07:40:28;99910.47;;;20.73;77.92
21730;BME280;11027;51.030;13.812;2023-09-12T07:42:54;99905.00;;;20.78;77.60
21730;BME280;11027;51.030;13.812;2023-09-12T07:45:19;99901.72;;;20.81;77.69
21730;BME280;11027;51.030;13.812;2023-09-12T07:47:45;99906.72;;;20.84;77.54
21730;BME280;11027;51.030;13.812;2023-09-12T07:50:10;99907.91;;;20.88;77.32
21730;BME280;11027;51.030;13.812;2023-09-12T07:52:36;99911.84;;;20.92;77.21
21730;BME280;11027;51.030;13.812;2023-09-12T07:55:04;99911.91;;;20.97;77.08
21730;BME280;11027;51.030;13.812;2023-09-12T07:57:30;99907.53;;;21.02;77.04
21730;BME280;11027;51.030;13.812;2023-09-12T07:59:56;99912.59;;;21.05;76.88
21730;BME280;11027;51.030;13.812;2023-09-12T08:02:21;99908.22;;;21.09;76.90
21730;BME280;11027;51.030;13.812;2023-09-12T08:04:49;99916.22;;;21.10;76.88
21730;BME280;11027;51.030;13.812;2023-09-12T08:07:16;99906.59;;;21.13;76.55
21730;BME280;11027;51.030;13.812;2023-09-12T08:09:55;99910.53;;;21.17;76.22
21730;BME280;11027;51.030;13.812;2023-09-12T08:12:23;99890.38;;;21.22;76.29
21730;BME280;11027;51.030;13.812;2023-09-12T08:14:48;99897.88;;;21.26;76.23
21730;BME280;11027;51.030;13.812;2023-09-12T08:17:15;99903.22;;;21.33;75.96
21730;BME280;11027;51.030;13.812;2023-09-12T08:19:40;99896.09;;;21.37;76.11
21730;BME280;11027;51.030;13.812;2023-09-12T08:22:07;99901.94;;;21.41;75.99
21730;BME280;11027;51.030;13.812;2023-09-12T08:24:33;99904.25;;;21.44;75.73
21730;BME280;11027;51.030;13.812;2023-09-12T08:26:58;99899.03;;;21.47;75.91
21730;BME280;11027;51.030;13.812;2023-09-12T08:29:24;99898.50;;;21.50;75.41
21730;BME280;11027;51.030;13.812;2023-09-12T08:31:49;99899.66;;;21.54;75.53
21730;BME280;11027;51.030;13.812;2023-09-12T08:34:15;99901.91;;;21.57;75.38
21730;BME280;11027;51.030;13.812;2023-09-12T08:36:40;99907.50;;;21.63;75.14
21730;BME280;11027;51.030;13.812;2023-09-12T08:39:05;99908.41;;;21.68;74.99
21730;BME280;11027;51.030;13.812;2023-09-12T08:41:33;99909.53;;;21.72;74.82
21730;BME280;11027;51.030;13.812;2023-09-12T08:44:00;99912.38;;;21.77;74.50
21730;BME280;11027;51.030;13.812;2023-09-12T08:46:26;99909.06;;;21.81;74.24
21730;BME280;11027;51.030;13.812;2023-09-12T08:48:53;99911.34;;;21.84;74.21
21730;BME280;11027;51.030;13.812;2023-09-12T08:51:20;99911.63;;;21.87;73.66
21730;BME280;11027;51.030;13.812;2023-09-12T08:53:46;99909.19;;;21.91;73.37
21730;BME280;11027;51.030;13.812;2023-09-12T08:56:12;99906.47;;;21.96;73.26
21730;BME280;11027;51.030;13.812;2023-09-12T08:58:37;99914.81;;;22.01;72.66
21730;BME280;11027;51.030;13.812;2023-09-12T09:01:03;99905.75;;;22.06;72.06
21730;BME280;11027;51.030;13.812;2023-09-12T09:03:29;99906.03;;;22.09;71.57
21730;BME280;11027;51.030;13.812;2023-09-12T09:05:55;99903.81;;;22.11;71.13
21730;BME280;11027;51.030;13.812;2023-09-12T09:08:23;99896.38;;;22.17;70.63
21730;BME280;11027;51.030;13.812;2023-09-12T09:10:58;99900.31;;;22.21;70.22
21730;BME280;11027;51.030;13.812;2023-09-12T09:13:24;99889.31;;;22.26;69.61
21730;BME280;11027;51.030;13.812;2023-09-12T09:16:09;99887.41;;;22.32;68.97
21730;BME280;11027;51.030;13.812;2023-09-12T09:19:01;99891.03;;;22.37;68.41
21730;BME280;11027;51.030;13.812;2023-09-12T09:21:32;99874.19;;;22.44;67.83
21730;BME280;11027;51.030;13.812;2023-09-12T09:24:01;99876.97;;;22.49;67.25
21730;BME280;11027;51.030;13.812;2023-09-12T09:26:41;99878.69;;;22.55;66.38
21730;BME280;11027;51.030;13.812;2023-09-12T09:29:09;99872.63;;;22.64;66.17
21730;BME280;11027;51.030;13.812;2023-09-12T09:31:35;99875.44;;;22.69;65.58
21730;BME280;11027;51.030;13.812;2023-09-12T09:34:01;99872.16;;;22.77;65.17
21730;BME280;11027;51.030;13.812;2023-09-12T09:36:27;99871.66;;;22.85;64.62
21730;BME280;11027;51.030;13.812;2023-09-12T09:38:54;99875.00;;;22.92;64.56
21730;BME280;11027;51.030;13.812;2023-09-12T09:41:20;99872.00;;;22.99;64.24
21730;BME280;11027;51.030;13.812;2023-09-12T09:43:49;99884.03;;;23.05;63.88
21730;BME280;11027;51.030;13.812;2023-09-12T09:46:16;99878.22;;;23.11;63.38
21730;BME280;11027;51.030;13.812;2023-09-12T09:48:48;99872.94;;;23.15;63.00
21730;BME280;11027;51.030;13.812;2023-09-12T09:51:14;99870.75;;;23.22;62.59
21730;BME280;11027;51.030;13.812;2023-09-12T09:53:39;99859.66;;;23.27;62.16
21730;BME280;11027;51.030;13.812;2023-09-12T09:56:12;99869.69;;;23.33;61.89
21730;BME280;11027;51.030;13.812;2023-09-12T09:58:54;99865.56;;;23.41;61.01
21730;BME280;11027;51.030;13.812;2023-09-12T10:01:21;99860.56;;;23.48;60.75
21730;BME280;11027;51.030;13.812;2023-09-12T10:03:48;99860.28;;;23.55;60.45
21730;BME280;11027;51.030;13.812;2023-09-12T10:06:15;99861.97;;;23.61;60.20
21730;BME280;11027;51.030;13.812;2023-09-12T10:08:49;99864.22;;;23.64;59.97
21730;BME280;11027;51.030;13.812;2023-09-12T10:11:16;99863.69;;;23.67;59.10
21730;BME280;11027;51.030;13.812;2023-09-12T10:13:54;99861.72;;;23.73;58.53
21730;BME280;11027;51.030;13.812;2023-09-12T10:16:23;99865.38;;;23.79;58.36
21730;BME280;11027;51.030;13.812;2023-09-12T10:19:10;99872.06;;;23.83;57.69
21730;BME280;11027;51.030;13.812;2023-09-12T10:21:48;99869.28;;;23.88;57.65
21730;BME280;11027;51.030;13.812;2023-09-12T10:24:14;99864.84;;;23.92;57.42
21730;BME280;11027;51.030;13.812;2023-09-12T10:26:41;99864.56;;;23.99;57.13
21730;BME280;11027;51.030;13.812;2023-09-12T10:29:10;99867.06;;;24.05;55.99
21730;BME280;11027;51.030;13.812;2023-09-12T10:31:37;99875.44;;;24.10;55.72
21730;BME280;11027;51.030;13.812;2023-09-12T10:34:03;99863.75;;;24.19;55.23
21730;BME280;11027;51.030;13.812;2023-09-12T10:36:29;99867.38;;;24.24;54.83
21730;BME280;11027;51.030;13.812;2023-09-12T10:38:56;99863.19;;;24.32;54.58
21730;BME280;11027;51.030;13.812;2023-09-12T10:41:24;99868.75;;;24.37;54.21
21730;BME280;11027;51.030;13.812;2023-09-12T10:43:52;99867.06;;;24.41;54.06
21730;BME280;11027;51.030;13.812;2023-09-12T10:46:18;99862.59;;;24.45;54.15
21730;BME280;11027;51.030;13.812;2023-09-12T10:48:44;99862.88;;;24.49;53.95
21730;BME280;11027;51.030;13.812;2023-09-12T10:51:10;99860.41;;;24.52;53.61
21730;BME280;11027;51.030;13.812;2023-09-12T10:53:37;99854.81;;;24.58;53.39
21730;BME280;11027;51.030;13.812;2023-09-12T11:01:32;99862.59;;;24.81;53.39
21730;BME280;11027;51.030;13.812;2023-09-12T11:03:58;99862.00;;;24.89;53.54
21730;BME280;11027;51.030;13.812;2023-09-12T11:06:30;99855.56;;;24.99;53.22
21730;BME280;11027;51.030;13.812;2023-09-12T11:11:40;99856.31;;;25.20;52.61
21730;BME280;11027;51.030;13.812;2023-09-12T11:14:07;99849.88;;;25.30;52.09
21730;BME280;11027;51.030;13.812;2023-09-12T11:16:33;99843.44;;;25.40;51.33
21730;BME280;11027;51.030;13.812;2023-09-12T11:19:18;99847.25;;;25.49;50.83
21730;BME280;11027;51.030;13.812;2023-09-12T11:21:45;99838.28;;;25.57;50.60
21730;BME280;11027;51.030;13.812;2023-09-12T11:24:12;99842.16;;;25.66;50.49
21730;BME280;11027;51.030;13.812;2023-09-12T11:26:53;99839.81;;;25.79;50.31
21730;BME280;11027;51.030;13.812;2023-09-12T11:29:19;99828.59;;;25.89;50.54
21730;BME280;11027;51.030;13.812;2023-09-12T11:31:55;99833.28;;;25.99;50.38
21730;BME280;11027;51.030;13.812;2023-09-12T11:34:24;99827.91;;;26.07;50.11
21730;BME280;11027;51.030;13.812;2023-09-12T11:36:54;99821.13;;;26.19;49.96
21730;BME280;11027;51.030;13.812;2023-09-12T11:39:25;99815.44;;;26.29;49.74
21730;BME280;11027;51.030;13.812;2023-09-12T11:41:50;99818.13;;;26.39;49.84
21730;BME280;11027;51.030;13.812;2023-09-12T11:44:17;99810.78;;;26.48;49.80
21730;BME280;11027;51.030;13.812;2023-09-12T11:46:43;99817.41;;;26.58;49.21
21730;BME280;11027;51.030;13.812;2023-09-12T11:49:08;99808.91;;;26.68;48.89
21730;BME280;11027;51.030;13.812;2023-09-12T11:51:33;99804.88;;;26.79;48.55
21730;BME280;11027;51.030;13.812;2023-09-12T11:53:59;99804.22;;;26.87;48.55
21730;BME280;11027;51.030;13.812;2023-09-12T11:56:26;99802.47;;;26.97;47.95
21730;BME280;11027;51.030;13.812;2023-09-12T11:58:53;99801.25;;;27.03;47.93
21730;BME280;11027;51.030;13.812;2023-09-12T12:01:20;99802.53;;;27.10;47.70
21730;BME280;11027;51.030;13.812;2023-09-12T12:03:45;99809.97;;;27.20;47.43
21730;BME280;11027;51.030;13.812;2023-09-12T12:06:11;99805.41;;;27.29;47.57
21730;BME280;11027;51.030;13.812;2023-09-12T12:08:37;99800.25;;;27.37;47.27
21730;BME280;11027;51.030;13.812;2023-09-12T12:11:02;99791.19;;;27.45;46.74
21730;BME280;11027;51.030;13.812;2023-09-12T12:13:28;99788.78;;;27.57;47.19
21730;BME280;11027;51.030;13.812;2023-09-12T12:15:53;99786.94;;;27.66;46.49
21730;BME280;11027;51.030;13.812;2023-09-12T12:18:19;99787.59;;;27.77;46.54
21730;BME280;11027;51.030;13.812;2023-09-12T12:20:44;99784.38;;;27.89;47.00
21730;BME280;11027;51.030;13.812;2023-09-12T12:23:09;99788.75;;;27.95;46.28
21730;BME280;11027;51.030;13.812;2023-09-12T12:25:36;99790.84;;;28.03;46.21
21730;BME280;11027;51.030;13.812;2023-09-12T12:28:02;99780.09;;;28.10;45.69
21730;BME280;11027;51.030;13.812;2023-09-12T12:30:35;99774.91;;;28.18;45.26
21730;BME280;11027;51.030;13.812;2023-09-12T12:33:01;99777.03;;;28.26;45.16
21730;BME280;11027;51.030;13.812;2023-09-12T12:35:28;99775.16;;;28.35;44.72
21730;BME280;11027;51.030;13.812;2023-09-12T12:37:54;99774.97;;;28.45;44.67
21730;BME280;11027;51.030;13.812;2023-09-12T12:40:23;99773.16;;;28.55;44.71
21730;BME280;11027;51.030;13.812;2023-09-12T12:42:48;99768.97;;;28.66;44.92
21730;BME280;11027;51.030;13.812;2023-09-12T12:45:20;99763.50;;;28.75;44.92
21730;BME280;11027;51.030;13.812;2023-09-12T12:47:46;99760.69;;;28.75;44.35
21730;BME280;11027;51.030;13.812;2023-09-12T12:52:38;99756.13;;;28.79;43.72
21730;BME280;11027;51.030;13.812;2023-09-12T12:55:14;99759.53;;;28.89;43.67
21730;BME280;11027;51.030;13.812;2023-09-12T12:57:43;99755.91;;;29.03;43.54
21730;BME280;11027;51.030;13.812;2023-09-12T13:00:13;99754.22;;;29.16;43.24